Fairfax, VA

8:28 PM EDT on October 21, 2014 (GMT -0400)
Fairfax - Kings Park West (II) | Change Station
CLOSE
Current Station
Personal Weather Station
Location: Fairfax, VA
Elevation: 397 ft
Nearby Weather Stations

Elev 397 ft 38.81 °N, 77.30 °W | Updated 22 seconds ago

Rain
Rain
54.0 °F
Feels Like 54.0 °F
N
2.7
Wind Variable Wind from NNW
Gusts 2.7 mph

Today
High -- | Low -- °F
--% Chance of Precip.
Yesterday
High -- | Low -- °F
Precip. -- in
7:24 AM 6:22 PM
Waning Crescent, 4% visible
Pressure 29.89 in
Visibility 10.0 miles
Clouds Scattered Clouds 3100 ft
Mostly Cloudy 4300 ft
Overcast 4900 ft
Dew Point 53 °F
Humidity 98%
Rainfall 0.02 in
Snow Depth Not available.
UV 0 out of 12
Pollen 1.70 out of 12
Ozone Good
PM2.5 Good
Flu Activity Local Activity
METAR KDAA 212358Z 31004KT 10SM SCT031 BKN043 OVC049 13/12 A2986 RMK SLP122 A02 RAB2309E2348DZB2320E2353 P0002 60012 T01350119 1021 20135 51022

More Conditions Fewer Conditions

Pressure 29.89 in
Visibility 10.0 miles
Clouds Scattered Clouds 3100 ft
Mostly Cloudy 4300 ft
Overcast 4900 ft
Dew Point 53 °F
Humidity 98%
Rainfall 0.02 in
Snow Depth Not available.
UV 0 out of 12
Pollen 1.70 out of 12
Ozone Good
PM2.5 Good
Flu Activity Local Activity
METAR KDAA 212358Z 31004KT 10SM SCT031 BKN043 OVC049 13/12 A2986 RMK SLP122 A02 RAB2309E2348DZB2320E2353 P0002 60012 T01350119 1021 20135 51022

More Conditions Fewer Conditions

10-Day Weather Forecast

Almanac

Astronomy

Oct. 21, 2014 Rise Set
Actual Time 7:24 AM EDT 6:22 PM EDT
Civil Twilight 6:57 AM EDT 6:49 PM EDT
Nautical Twilight 6:26 AM EDT 7:20 PM EDT
Astronomical Twilight 5:55 AM EDT 7:51 PM EDT
Moon 5:08 AM EDT (10/21) 5:14 PM EDT (10/21)
Length of Visible Light 11h 51m
Length of Day
10h 57m
Tomorrow will be 2m 21s shorter.
Waning Crescent, 4% of the Moon is Illuminated
Today
Waning Crescent
Oct 23
New
Oct 30
First Quarter
Nov 6
Full
Nov 14
Last Quarter

Today's Extremes

State Highs State Lows

Community

WunderPhotos

Upload Photos

1,763,827 photos uploaded!

Nearby

Air Quality

  Air Quality AQ Index Pollutant
Yesterday Good
OZONE
Yesterday Good
PM10
Current Good
PM2.5
Current Good
OZONE
Tuesday Good
PM2.5
Wednesday Good
PM2.5
Thursday Good
PM2.5
Friday Good
PM2.5

Snow Depth

Station Depth Elevation
No new snow has been reported.

Earthquake Activity

City Distance Mag. Time & Date
No recent earthquake activity has been reported nearby.
Minimum magnitude displayed is 2.5.

Coastal Water Temperatures

Place Temperature
Washington, DC 63.0 °F
Baltimore, MD 66.0 °F
Solomons Island, MD 66.0 °F

Nearby Weather Stations